sensor_id;sensor_type;location;lat;lon;timestamp;pressure;altitude;pressure_sealevel;temperature;humidity
74218;BME280;62579;47.288;18.646;2022-09-12T00:01:55;99776.91;;;14.16;85.89
74218;BME280;62579;47.288;18.646;2022-09-12T00:04:20;99779.94;;;14.12;85.97
74218;BME280;62579;47.288;18.646;2022-09-12T00:06:45;99779.00;;;14.10;86.27
74218;BME280;62579;47.288;18.646;2022-09-12T00:09:12;99780.50;;;14.11;86.26
74218;BME280;62579;47.288;18.646;2022-09-12T00:11:38;99778.59;;;14.06;86.60
74218;BME280;62579;47.288;18.646;2022-09-12T00:14:05;99778.69;;;14.13;86.31
74218;BME280;62579;47.288;18.646;2022-09-12T00:16:32;99775.09;;;14.05;86.75
74218;BME280;62579;47.288;18.646;2022-09-12T00:18:57;99783.72;;;14.09;86.60
74218;BME280;62579;47.288;18.646;2022-09-12T00:21:23;99781.22;;;14.11;86.47
74218;BME280;62579;47.288;18.646;2022-09-12T00:23:48;99787.94;;;14.10;86.63
74218;BME280;62579;47.288;18.646;2022-09-12T00:26:14;99784.56;;;14.04;86.82
74218;BME280;62579;47.288;18.646;2022-09-12T00:28:41;99785.44;;;14.12;86.48
74218;BME280;62579;47.288;18.646;2022-09-12T00:31:07;99779.91;;;13.99;87.14
74218;BME280;62579;47.288;18.646;2022-09-12T00:33:33;99781.00;;;14.09;86.66
74218;BME280;62579;47.288;18.646;2022-09-12T00:35:59;99777.53;;;14.09;86.66
74218;BME280;62579;47.288;18.646;2022-09-12T00:38:27;99779.66;;;14.16;86.40
74218;BME280;62579;47.288;18.646;2022-09-12T00:40:52;99781.44;;;14.13;86.42
74218;BME280;62579;47.288;18.646;2022-09-12T00:43:34;99773.31;;;14.08;86.69
74218;BME280;62579;47.288;18.646;2022-09-12T00:46:01;99778.50;;;14.11;86.58
74218;BME280;62579;47.288;18.646;2022-09-12T00:48:32;99780.50;;;14.11;86.57
74218;BME280;62579;47.288;18.646;2022-09-12T00:50:59;99777.22;;;14.12;86.42
74218;BME280;62579;47.288;18.646;2022-09-12T00:53:24;99777.66;;;14.16;86.29
74218;BME280;62579;47.288;18.646;2022-09-12T00:55:50;99777.75;;;14.11;86.52
74218;BME280;62579;47.288;18.646;2022-09-12T00:58:18;99781.97;;;14.12;86.43
74218;BME280;62579;47.288;18.646;2022-09-12T01:00:45;99773.88;;;14.19;86.03
74218;BME280;62579;47.288;18.646;2022-09-12T01:03:11;99772.19;;;14.16;86.06
74218;BME280;62579;47.288;18.646;2022-09-12T01:05:39;99763.22;;;14.16;86.01
74218;BME280;62579;47.288;18.646;2022-09-12T01:08:08;99766.28;;;14.12;86.03
74218;BME280;62579;47.288;18.646;2022-09-12T01:10:33;99778.66;;;14.00;86.67
74218;BME280;62579;47.288;18.646;2022-09-12T01:12:59;99780.94;;;13.96;86.76
74218;BME280;62579;47.288;18.646;2022-09-12T01:15:25;99776.44;;;13.99;86.59
74218;BME280;62579;47.288;18.646;2022-09-12T01:25:37;99770.63;;;13.89;86.94
74218;BME280;62579;47.288;18.646;2022-09-12T01:35:39;99772.91;;;13.85;86.92
74218;BME280;62579;47.288;18.646;2022-09-12T01:38:25;99780.47;;;13.79;87.15
74218;BME280;62579;47.288;18.646;2022-09-12T01:46:21;99766.06;;;13.78;86.90
74218;BME280;62579;47.288;18.646;2022-09-12T01:48:59;99771.00;;;13.80;86.87
74218;BME280;62579;47.288;18.646;2022-09-12T01:53:53;99771.66;;;13.86;86.32
74218;BME280;62579;47.288;18.646;2022-09-12T01:56:21;99781.28;;;13.93;86.00
74218;BME280;62579;47.288;18.646;2022-09-12T02:01:23;99779.53;;;13.76;86.55
74218;BME280;62579;47.288;18.646;2022-09-12T02:03:52;99781.66;;;13.65;86.94
74218;BME280;62579;47.288;18.646;2022-09-12T02:06:21;99784.03;;;13.74;86.36
74218;BME280;62579;47.288;18.646;2022-09-12T02:08:52;99774.78;;;13.77;86.09
74218;BME280;62579;47.288;18.646;2022-09-12T02:11:19;99786.84;;;13.68;86.37
74218;BME280;62579;47.288;18.646;2022-09-12T02:16:24;99783.16;;;13.66;86.24
74218;BME280;62579;47.288;18.646;2022-09-12T02:18:51;99788.31;;;13.69;85.95
74218;BME280;62579;47.288;18.646;2022-09-12T02:21:18;99779.59;;;13.71;85.85
74218;BME280;62579;47.288;18.646;2022-09-12T02:23:44;99782.69;;;13.62;86.03
74218;BME280;62579;47.288;18.646;2022-09-12T02:26:14;99778.25;;;13.59;86.21
74218;BME280;62579;47.288;18.646;2022-09-12T02:28:43;99781.53;;;13.57;86.17
74218;BME280;62579;47.288;18.646;2022-09-12T02:31:29;99781.31;;;13.55;86.18
74218;BME280;62579;47.288;18.646;2022-09-12T02:38:51;99773.97;;;13.45;86.56
74218;BME280;62579;47.288;18.646;2022-09-12T02:41:18;99776.62;;;13.50;86.28
74218;BME280;62579;47.288;18.646;2022-09-12T02:43:44;99775.91;;;13.50;85.99
74218;BME280;62579;47.288;18.646;2022-09-12T02:46:12;99784.41;;;13.46;86.23
74218;BME280;62579;47.288;18.646;2022-09-12T02:48:40;99780.78;;;13.38;86.51
74218;BME280;62579;47.288;18.646;2022-09-12T02:51:06;99767.78;;;13.44;86.07
74218;BME280;62579;47.288;18.646;2022-09-12T02:53:32;99781.81;;;13.35;86.45
74218;BME280;62579;47.288;18.646;2022-09-12T02:55:57;99786.53;;;13.35;86.40
74218;BME280;62579;47.288;18.646;2022-09-12T02:58:24;99782.41;;;13.28;86.70
74218;BME280;62579;47.288;18.646;2022-09-12T03:05:57;99787.75;;;13.39;85.86
74218;BME280;62579;47.288;18.646;2022-09-12T03:13:43;99789.78;;;13.14;86.74
74218;BME280;62579;47.288;18.646;2022-09-12T03:16:20;99788.37;;;13.27;86.18
74218;BME280;62579;47.288;18.646;2022-09-12T03:21:40;99786.25;;;13.19;86.36
74218;BME280;62579;47.288;18.646;2022-09-12T03:26:29;99801.44;;;13.15;86.49
74218;BME280;62579;47.288;18.646;2022-09-12T03:28:56;99792.56;;;13.09;86.66
74218;BME280;62579;47.288;18.646;2022-09-12T03:31:23;99796.38;;;13.00;87.13
74218;BME280;62579;47.288;18.646;2022-09-12T03:33:48;99789.88;;;13.03;86.97
74218;BME280;62579;47.288;18.646;2022-09-12T03:36:15;99793.34;;;13.04;87.04
74218;BME280;62579;47.288;18.646;2022-09-12T03:38:41;99792.09;;;13.05;86.94
74218;BME280;62579;47.288;18.646;2022-09-12T03:41:06;99795.13;;;13.01;87.02
74218;BME280;62579;47.288;18.646;2022-09-12T03:43:32;99788.91;;;13.01;86.95
74218;BME280;62579;47.288;18.646;2022-09-12T03:45:57;99789.03;;;12.90;87.34
74218;BME280;62579;47.288;18.646;2022-09-12T03:48:22;99785.56;;;12.89;87.18
74218;BME280;62579;47.288;18.646;2022-09-12T03:50:47;99787.25;;;12.92;87.02
74218;BME280;62579;47.288;18.646;2022-09-12T03:53:12;99769.84;;;12.95;86.81
74218;BME280;62579;47.288;18.646;2022-09-12T03:55:38;99776.97;;;13.04;86.37
74218;BME280;62579;47.288;18.646;2022-09-12T03:58:03;99780.56;;;12.93;86.85
74218;BME280;62579;47.288;18.646;2022-09-12T04:00:28;99782.03;;;12.94;86.76
74218;BME280;62579;47.288;18.646;2022-09-12T04:02:54;99784.62;;;13.05;86.35
74218;BME280;62579;47.288;18.646;2022-09-12T04:05:19;99788.16;;;13.00;86.46
74218;BME280;62579;47.288;18.646;2022-09-12T04:07:45;99787.94;;;12.98;86.66
74218;BME280;62579;47.288;18.646;2022-09-12T04:10:10;99794.87;;;12.99;86.71
74218;BME280;62579;47.288;18.646;2022-09-12T04:12:35;99794.06;;;13.04;86.45
74218;BME280;62579;47.288;18.646;2022-09-12T04:15:01;99799.53;;;13.04;86.40
74218;BME280;62579;47.288;18.646;2022-09-12T04:17:26;99795.53;;;12.87;87.24
74218;BME280;62579;47.288;18.646;2022-09-12T04:19:51;99790.53;;;12.91;87.20
74218;BME280;62579;47.288;18.646;2022-09-12T04:22:16;99795.63;;;13.00;86.84
74218;BME280;62579;47.288;18.646;2022-09-12T04:24:42;99787.41;;;13.00;86.81
74218;BME280;62579;47.288;18.646;2022-09-12T04:27:07;99792.03;;;13.10;86.19
74218;BME280;62579;47.288;18.646;2022-09-12T04:29:32;99801.03;;;13.05;86.34
74218;BME280;62579;47.288;18.646;2022-09-12T04:31:57;99783.66;;;13.03;86.58
74218;BME280;62579;47.288;18.646;2022-09-12T04:34:22;99781.91;;;13.05;86.31
74218;BME280;62579;47.288;18.646;2022-09-12T04:36:48;99787.34;;;13.11;86.10
74218;BME280;62579;47.288;18.646;2022-09-12T04:39:13;99787.94;;;12.98;86.62
74218;BME280;62579;47.288;18.646;2022-09-12T04:41:38;99793.69;;;12.95;86.81
74218;BME280;62579;47.288;18.646;2022-09-12T04:44:06;99780.91;;;13.08;86.13
74218;BME280;62579;47.288;18.646;2022-09-12T04:46:36;99790.97;;;13.19;85.72
74218;BME280;62579;47.288;18.646;2022-09-12T04:49:02;99798.28;;;13.30;85.42
74218;BME280;62579;47.288;18.646;2022-09-12T04:51:29;99803.13;;;13.18;85.79
74218;BME280;62579;47.288;18.646;2022-09-12T04:53:56;99807.88;;;13.17;85.89
74218;BME280;62579;47.288;18.646;2022-09-12T04:56:21;99809.13;;;13.16;86.21
74218;BME280;62579;47.288;18.646;2022-09-12T04:58:47;99815.84;;;13.15;86.38
74218;BME280;62579;47.288;18.646;2022-09-12T05:01:14;99817.41;;;13.30;85.99
74218;BME280;62579;47.288;18.646;2022-09-12T05:03:40;99816.50;;;13.21;86.26
74218;BME280;62579;47.288;18.646;2022-09-12T05:06:07;99821.72;;;13.44;85.33
74218;BME280;62579;47.288;18.646;2022-09-12T05:08:33;99823.44;;;13.47;85.26
74218;BME280;62579;47.288;18.646;2022-09-12T05:11:06;99827.31;;;13.33;85.95
74218;BME280;62579;47.288;18.646;2022-09-12T05:13:32;99843.53;;;13.49;85.53
74218;BME280;62579;47.288;18.646;2022-09-12T05:15:58;99839.53;;;13.50;85.33
74218;BME280;62579;47.288;18.646;2022-09-12T05:18:24;99844.97;;;13.50;85.46
74218;BME280;62579;47.288;18.646;2022-09-12T05:20:50;99852.56;;;13.63;84.78
74218;BME280;62579;47.288;18.646;2022-09-12T05:23:15;99853.72;;;13.67;84.98
74218;BME280;62579;47.288;18.646;2022-09-12T05:25:47;99859.34;;;13.75;84.43
74218;BME280;62579;47.288;18.646;2022-09-12T05:28:13;99858.03;;;13.81;84.04
74218;BME280;62579;47.288;18.646;2022-09-12T05:30:38;99868.91;;;13.87;83.96
74218;BME280;62579;47.288;18.646;2022-09-12T05:33:03;99862.53;;;13.98;83.34
74218;BME280;62579;47.288;18.646;2022-09-12T05:35:29;99858.81;;;14.14;83.35
74218;BME280;62579;47.288;18.646;2022-09-12T05:37:54;99858.81;;;14.14;83.21
74218;BME280;62579;47.288;18.646;2022-09-12T05:40:19;99857.09;;;14.29;82.19
74218;BME280;62579;47.288;18.646;2022-09-12T05:42:45;99855.53;;;14.34;82.07
74218;BME280;62579;47.288;18.646;2022-09-12T05:45:10;99855.78;;;14.36;82.51
74218;BME280;62579;47.288;18.646;2022-09-12T05:47:35;99854.13;;;14.46;82.43
74218;BME280;62579;47.288;18.646;2022-09-12T05:50:01;99851.81;;;14.63;81.67
74218;BME280;62579;47.288;18.646;2022-09-12T05:52:26;99860.03;;;14.63;81.70
74218;BME280;62579;47.288;18.646;2022-09-12T05:54:51;99864.37;;;14.72;81.74
74218;BME280;62579;47.288;18.646;2022-09-12T05:57:17;99864.34;;;14.59;81.96
74218;BME280;62579;47.288;18.646;2022-09-12T05:59:42;99870.72;;;14.80;81.67
74218;BME280;62579;47.288;18.646;2022-09-12T06:02:07;99860.81;;;14.90;81.34
74218;BME280;62579;47.288;18.646;2022-09-12T06:04:34;99856.91;;;14.85;81.05
74218;BME280;62579;47.288;18.646;2022-09-12T06:06:59;99859.47;;;14.83;81.29
74218;BME280;62579;47.288;18.646;2022-09-12T06:09:24;99856.19;;;14.98;80.61
74218;BME280;62579;47.288;18.646;2022-09-12T06:11:49;99854.84;;;15.04;80.87
74218;BME280;62579;47.288;18.646;2022-09-12T06:14:16;99856.97;;;15.25;80.22
74218;BME280;62579;47.288;18.646;2022-09-12T06:16:41;99859.25;;;15.34;79.49
74218;BME280;62579;47.288;18.646;2022-09-12T06:19:10;99860.09;;;15.29;79.16
74218;BME280;62579;47.288;18.646;2022-09-12T06:21:36;99863.69;;;15.37;79.16
74218;BME280;62579;47.288;18.646;2022-09-12T06:24:02;99862.84;;;15.42;78.39
74218;BME280;62579;47.288;18.646;2022-09-12T06:26:28;99859.59;;;15.56;78.80
74218;BME280;62579;47.288;18.646;2022-09-12T06:28:54;99861.75;;;15.71;77.97
74218;BME280;62579;47.288;18.646;2022-09-12T06:31:21;99867.47;;;15.60;78.85
74218;BME280;62579;47.288;18.646;2022-09-12T06:33:47;99867.47;;;15.73;77.78
74218;BME280;62579;47.288;18.646;2022-09-12T06:36:17;99876.38;;;16.00;76.67
74218;BME280;62579;47.288;18.646;2022-09-12T06:38:43;99875.09;;;16.01;76.54
74218;BME280;62579;47.288;18.646;2022-09-12T06:41:10;99869.56;;;16.14;76.15
74218;BME280;62579;47.288;18.646;2022-09-12T06:43:36;99870.19;;;16.20;75.24
74218;BME280;62579;47.288;18.646;2022-09-12T06:46:01;99868.78;;;16.27;75.00
74218;BME280;62579;47.288;18.646;2022-09-12T06:48:27;99867.22;;;16.18;74.47
74218;BME280;62579;47.288;18.646;2022-09-12T06:51:06;99866.56;;;16.25;74.68
74218;BME280;62579;47.288;18.646;2022-09-12T06:53:31;99863.63;;;16.23;75.17
74218;BME280;62579;47.288;18.646;2022-09-12T06:56:01;99859.81;;;16.26;75.26
74218;BME280;62579;47.288;18.646;2022-09-12T06:58:27;99858.00;;;16.29;74.39
74218;BME280;62579;47.288;18.646;2022-09-12T07:00:59;99846.34;;;16.36;74.26
74218;BME280;62579;47.288;18.646;2022-09-12T07:03:26;99852.97;;;16.40;74.89
74218;BME280;62579;47.288;18.646;2022-09-12T07:05:51;99852.06;;;16.58;73.73
74218;BME280;62579;47.288;18.646;2022-09-12T07:08:16;99858.88;;;16.65;73.46
74218;BME280;62579;47.288;18.646;2022-09-12T07:10:41;99864.66;;;16.74;73.27
74218;BME280;62579;47.288;18.646;2022-09-12T07:13:07;99869.22;;;16.72;72.16
74218;BME280;62579;47.288;18.646;2022-09-12T07:15:33;99869.94;;;16.72;72.19
74218;BME280;62579;47.288;18.646;2022-09-12T07:17:58;99865.72;;;16.71;72.82
74218;BME280;62579;47.288;18.646;2022-09-12T07:20:23;99865.41;;;17.03;72.38
74218;BME280;62579;47.288;18.646;2022-09-12T07:22:49;99872.72;;;17.01;72.12
74218;BME280;62579;47.288;18.646;2022-09-12T07:25:14;99875.03;;;17.17;72.14
74218;BME280;62579;47.288;18.646;2022-09-12T07:27:39;99886.03;;;17.17;70.83
74218;BME280;62579;47.288;18.646;2022-09-12T07:30:05;99883.72;;;17.29;70.61
74218;BME280;62579;47.288;18.646;2022-09-12T07:32:31;99885.69;;;17.21;70.25
74218;BME280;62579;47.288;18.646;2022-09-12T07:34:57;99889.94;;;17.29;70.41
74218;BME280;62579;47.288;18.646;2022-09-12T07:37:22;99892.75;;;17.37;68.93
74218;BME280;62579;47.288;18.646;2022-09-12T07:39:47;99889.19;;;17.57;68.60
74218;BME280;62579;47.288;18.646;2022-09-12T07:42:12;99893.78;;;17.55;70.50
74218;BME280;62579;47.288;18.646;2022-09-12T07:44:38;99898.38;;;17.60;69.54
74218;BME280;62579;47.288;18.646;2022-09-12T07:47:03;99905.91;;;17.59;69.59
74218;BME280;62579;47.288;18.646;2022-09-12T07:49:29;99907.75;;;17.64;68.66
74218;BME280;62579;47.288;18.646;2022-09-12T07:51:54;99909.09;;;17.71;67.18
74218;BME280;62579;47.288;18.646;2022-09-12T07:54:20;99902.75;;;17.91;67.16
74218;BME280;62579;47.288;18.646;2022-09-12T07:56:45;99907.56;;;18.06;66.63
74218;BME280;62579;47.288;18.646;2022-09-12T07:59:10;99905.03;;;18.23;66.80
74218;BME280;62579;47.288;18.646;2022-09-12T08:01:35;99908.87;;;18.20;66.20
74218;BME280;62579;47.288;18.646;2022-09-12T08:04:01;99901.91;;;18.26;65.40
74218;BME280;62579;47.288;18.646;2022-09-12T08:06:27;99901.19;;;18.26;65.19
74218;BME280;62579;47.288;18.646;2022-09-12T08:08:55;99899.03;;;18.39;65.20
74218;BME280;62579;47.288;18.646;2022-09-12T08:11:21;99893.31;;;18.37;64.95
74218;BME280;62579;47.288;18.646;2022-09-12T08:13:47;99894.66;;;18.59;64.55
74218;BME280;62579;47.288;18.646;2022-09-12T08:16:13;99893.72;;;18.64;63.13
74218;BME280;62579;47.288;18.646;2022-09-12T08:18:39;99882.34;;;18.75;62.80
74218;BME280;62579;47.288;18.646;2022-09-12T08:21:06;99896.88;;;18.68;63.79
74218;BME280;62579;47.288;18.646;2022-09-12T08:23:32;99897.78;;;18.78;62.17
74218;BME280;62579;47.288;18.646;2022-09-12T08:25:58;99886.75;;;18.86;62.90
74218;BME280;62579;47.288;18.646;2022-09-12T08:28:25;99890.44;;;18.96;63.31
74218;BME280;62579;47.288;18.646;2022-09-12T08:30:51;99888.75;;;18.85;62.08
74218;BME280;62579;47.288;18.646;2022-09-12T08:33:16;99885.09;;;18.90;62.15
74218;BME280;62579;47.288;18.646;2022-09-12T08:35:42;99885.06;;;19.13;62.65
74218;BME280;62579;47.288;18.646;2022-09-12T08:38:07;99881.75;;;19.07;63.85
74218;BME280;62579;47.288;18.646;2022-09-12T08:40:32;99886.34;;;19.04;63.41
74218;BME280;62579;47.288;18.646;2022-09-12T08:43:06;99890.22;;;18.94;61.57
74218;BME280;62579;47.288;18.646;2022-09-12T08:45:41;99878.44;;;19.08;61.83
74218;BME280;62579;47.288;18.646;2022-09-12T08:48:10;99885.47;;;18.87;62.21
74218;BME280;62579;47.288;18.646;2022-09-12T08:50:36;99887.84;;;18.83;62.14
74218;BME280;62579;47.288;18.646;2022-09-12T08:53:02;99887.31;;;18.84;61.39
74218;BME280;62579;47.288;18.646;2022-09-12T08:57:55;99891.53;;;18.93;61.70
74218;BME280;62579;47.288;18.646;2022-09-12T09:00:20;99891.53;;;18.93;61.73
74218;BME280;62579;47.288;18.646;2022-09-12T09:02:51;99884.53;;;18.92;59.28
74218;BME280;62579;47.288;18.646;2022-09-12T09:05:41;99878.44;;;19.16;59.12
74218;BME280;62579;47.288;18.646;2022-09-12T09:10:38;99876.19;;;19.45;58.03
74218;BME280;62579;47.288;18.646;2022-09-12T09:13:31;99873.75;;;19.56;59.19
74218;BME280;62579;47.288;18.646;2022-09-12T09:18:35;99869.63;;;19.72;58.45
74218;BME280;62579;47.288;18.646;2022-09-12T09:21:12;99875.09;;;19.88;56.42
74218;BME280;62579;47.288;18.646;2022-09-12T09:23:43;99873.84;;;19.81;55.19
74218;BME280;62579;47.288;18.646;2022-09-12T09:26:17;99864.13;;;20.05;55.86
74218;BME280;62579;47.288;18.646;2022-09-12T09:28:52;99858.22;;;20.08;56.01
74218;BME280;62579;47.288;18.646;2022-09-12T09:31:19;99858.88;;;20.24;57.21
74218;BME280;62579;47.288;18.646;2022-09-12T09:33:46;99864.09;;;20.12;56.12
74218;BME280;62579;47.288;18.646;2022-09-12T09:36:19;99861.28;;;20.20;57.42
74218;BME280;62579;47.288;18.646;2022-09-12T09:41:19;99868.31;;;20.13;57.17
74218;BME280;62579;47.288;18.646;2022-09-12T09:43:47;99863.41;;;20.04;57.12
74218;BME280;62579;47.288;18.646;2022-09-12T09:46:12;99862.00;;;19.88;58.17
74218;BME280;62579;47.288;18.646;2022-09-12T09:48:43;99871.06;;;19.81;57.51
74218;BME280;62579;47.288;18.646;2022-09-12T09:51:09;99870.94;;;20.11;57.80
74218;BME280;62579;47.288;18.646;2022-09-12T09:53:49;99863.13;;;20.17;57.10
74218;BME280;62579;47.288;18.646;2022-09-12T09:56:29;99871.09;;;20.13;58.70
74218;BME280;62579;47.288;18.646;2022-09-12T09:59:06;99865.00;;;20.15;57.54
74218;BME280;62579;47.288;18.646;2022-09-12T10:01:32;99858.09;;;20.31;57.66
74218;BME280;62579;47.288;18.646;2022-09-12T10:03:58;99859.00;;;20.33;57.24
74218;BME280;62579;47.288;18.646;2022-09-12T10:06:25;99858.84;;;20.31;56.50
74218;BME280;62579;47.288;18.646;2022-09-12T10:08:50;99860.84;;;20.31;57.75
74218;BME280;62579;47.288;18.646;2022-09-12T10:11:27;99861.47;;;20.22;57.87
74218;BME280;62579;47.288;18.646;2022-09-12T10:13:54;99867.34;;;20.26;57.21
74218;BME280;62579;47.288;18.646;2022-09-12T10:18:50;99864.59;;;20.18;58.58
74218;BME280;62579;47.288;18.646;2022-09-12T10:24:01;99849.16;;;20.15;58.79
74218;BME280;62579;47.288;18.646;2022-09-12T10:26:30;99845.41;;;20.28;58.14
74218;BME280;62579;47.288;18.646;2022-09-12T10:28:56;99843.38;;;20.28;57.93
74218;BME280;62579;47.288;18.646;2022-09-12T10:31:23;99849.13;;;20.48;56.71
74218;BME280;62579;47.288;18.646;2022-09-12T10:33:53;99851.16;;;20.47;58.19
74218;BME280;62579;47.288;18.646;2022-09-12T10:36:20;99847.09;;;20.73;56.86
74218;BME280;62579;47.288;18.646;2022-09-12T10:39:04;99845.31;;;20.85;55.66
74218;BME280;62579;47.288;18.646;2022-09-12T10:41:36;99853.41;;;20.66;55.84
74218;BME280;62579;47.288;18.646;2022-09-12T10:44:23;99850.53;;;20.81;55.13
74218;BME280;62579;47.288;18.646;2022-09-12T10:46:52;99852.88;;;20.84;55.30
74218;BME280;62579;47.288;18.646;2022-09-12T10:49:19;99847.41;;;20.35;55.85
74218;BME280;62579;47.288;18.646;2022-09-12T10:51:45;99844.12;;;20.29;56.48
74218;BME280;62579;47.288;18.646;2022-09-12T10:54:10;99857.59;;;19.93;56.89
74218;BME280;62579;47.288;18.646;2022-09-12T11:01:51;99854.75;;;19.68;58.89
74218;BME280;62579;47.288;18.646;2022-09-12T11:09:52;99860.53;;;19.55;59.82
74218;BME280;62579;47.288;18.646;2022-09-12T11:12:30;99855.94;;;19.42;59.03
74218;BME280;62579;47.288;18.646;2022-09-12T11:18:20;99856.84;;;19.52;59.29
74218;BME280;62579;47.288;18.646;2022-09-12T11:25:53;99846.72;;;19.47;60.07
74218;BME280;62579;47.288;18.646;2022-09-12T11:28:35;99850.38;;;19.50;60.13
74218;BME280;62579;47.288;18.646;2022-09-12T11:33:43;99841.50;;;19.66;60.61
74218;BME280;62579;47.288;18.646;2022-09-12T11:36:22;99842.38;;;19.76;60.09
74218;BME280;62579;47.288;18.646;2022-09-12T11:41:24;99841.94;;;19.48;59.11
74218;BME280;62579;47.288;18.646;2022-09-12T11:57:58;99833.59;;;20.77;55.00
74218;BME280;62579;47.288;18.646;2022-09-12T12:00:37;99837.81;;;20.78;54.60
74218;BME280;62579;47.288;18.646;2022-09-12T12:05:33;99822.97;;;20.66;54.93
74218;BME280;62579;47.288;18.646;2022-09-12T12:08:00;99820.50;;;20.77;53.29
74218;BME280;62579;47.288;18.646;2022-09-12T12:15:52;99817.87;;;20.62;54.49
74218;BME280;62579;47.288;18.646;2022-09-12T12:18:21;99814.91;;;20.60;54.88
74218;BME280;62579;47.288;18.646;2022-09-12T12:20:47;99802.91;;;20.65;52.38
74218;BME280;62579;47.288;18.646;2022-09-12T12:23:26;99804.13;;;20.72;53.26
74218;BME280;62579;47.288;18.646;2022-09-12T12:25:54;99800.31;;;20.84;53.46
74218;BME280;62579;47.288;18.646;2022-09-12T12:36:43;99798.81;;;20.49;55.89
74218;BME280;62579;47.288;18.646;2022-09-12T12:42:01;99814.38;;;20.62;55.49
74218;BME280;62579;47.288;18.646;2022-09-12T12:45:48;99813.31;;;20.32;59.88
74218;BME280;62579;47.288;18.646;2022-09-12T12:47:20;99813.97;;;20.16;61.23
74218;BME280;62579;47.288;18.646;2022-09-12T12:49:52;99811.66;;;20.05;61.80
74218;BME280;62579;47.288;18.646;2022-09-12T12:52:19;99819.16;;;19.40;64.41
74218;BME280;62579;47.288;18.646;2022-09-12T12:59:49;99804.31;;;19.12;66.05
74218;BME280;62579;47.288;18.646;2022-09-12T13:02:26;99812.72;;;19.30;65.73
74218;BME280;62579;47.288;18.646;2022-09-12T13:04:53;99805.44;;;19.09;67.57
74218;BME280;62579;47.288;18.646;2022-09-12T13:07:29;99807.56;;;19.34;65.58
74218;BME280;62579;47.288;18.646;2022-09-12T13:09:55;99804.47;;;19.30;65.56
74218;BME280;62579;47.288;18.646;2022-09-12T13:12:23;99803.34;;;19.40;65.50
74218;BME280;62579;47.288;18.646;2022-09-12T13:19:43;99805.66;;;19.59;64.72
74218;BME280;62579;47.288;18.646;2022-09-12T13:22:08;99796.41;;;19.64;64.68
74218;BME280;62579;47.288;18.646;2022-09-12T13:24:55;99801.88;;;19.79;64.69
74218;BME280;62579;47.288;18.646;2022-09-12T13:27:21;99792.88;;;20.03;64.38
74218;BME280;62579;47.288;18.646;2022-09-12T13:29:46;99781.13;;;20.27;62.16
74218;BME280;62579;47.288;18.646;2022-09-12T13:32:11;99792.94;;;20.45;61.48
74218;BME280;62579;47.288;18.646;2022-09-12T13:42:31;99795.16;;;20.14;60.37
74218;BME280;62579;47.288;18.646;2022-09-12T13:47:26;99795.56;;;19.86;60.48
74218;BME280;62579;47.288;18.646;2022-09-12T13:49:54;99787.66;;;19.83;60.58
74218;BME280;62579;47.288;18.646;2022-09-12T13:52:22;99788.91;;;19.89;59.67
74218;BME280;62579;47.288;18.646;2022-09-12T13:54:52;99781.97;;;19.81;59.83
74218;BME280;62579;47.288;18.646;2022-09-12T13:59:57;99777.31;;;20.15;58.46
74218;BME280;62579;47.288;18.646;2022-09-12T14:02:24;99784.47;;;20.18;58.59
74218;BME280;62579;47.288;18.646;2022-09-12T14:04:50;99779.09;;;20.20;58.02
74218;BME280;62579;47.288;18.646;2022-09-12T14:07:33;99773.81;;;20.15;57.46
74218;BME280;62579;47.288;18.646;2022-09-12T14:10:02;99777.97;;;20.23;57.62
74218;BME280;62579;47.288;18.646;2022-09-12T14:12:30;99776.66;;;20.32;57.37
74218;BME280;62579;47.288;18.646;2022-09-12T14:14:56;99777.09;;;20.21;58.32
74218;BME280;62579;47.288;18.646;2022-09-12T14:19:48;99770.13;;;20.62;56.85
74218;BME280;62579;47.288;18.646;2022-09-12T14:22:13;99771.75;;;20.82;55.07
74218;BME280;62579;47.288;18.646;2022-09-12T14:24:43;99766.97;;;20.65;54.59
74218;BME280;62579;47.288;18.646;2022-09-12T14:27:12;99760.03;;;20.74;55.07
74218;BME280;62579;47.288;18.646;2022-09-12T14:29:40;99772.75;;;20.94;53.73
74218;BME280;62579;47.288;18.646;2022-09-12T14:32:21;99770.94;;;21.06;52.40
74218;BME280;62579;47.288;18.646;2022-09-12T14:37:25;99774.47;;;20.89;53.49
74218;BME280;62579;47.288;18.646;2022-09-12T14:39:50;99770.13;;;20.79;51.45
74218;BME280;62579;47.288;18.646;2022-09-12T14:42:17;99769.16;;;20.84;51.51
74218;BME280;62579;47.288;18.646;2022-09-12T14:44:52;99773.97;;;20.83;52.55
74218;BME280;62579;47.288;18.646;2022-09-12T14:47:20;99781.81;;;20.53;52.87
74218;BME280;62579;47.288;18.646;2022-09-12T14:49:47;99777.53;;;20.76;51.60
74218;BME280;62579;47.288;18.646;2022-09-12T14:52:29;99767.22;;;20.94;52.40
74218;BME280;62579;47.288;18.646;2022-09-12T14:55:00;99766.91;;;21.24;51.61
74218;BME280;62579;47.288;18.646;2022-09-12T15:00:03;99761.28;;;21.59;51.06
74218;BME280;62579;47.288;18.646;2022-09-12T15:02:29;99757.41;;;21.71;50.72
74218;BME280;62579;47.288;18.646;2022-09-12T15:10:14;99742.37;;;21.65;49.01
74218;BME280;62579;47.288;18.646;2022-09-12T15:12:40;99740.00;;;21.61;48.26
74218;BME280;62579;47.288;18.646;2022-09-12T15:15:12;99751.72;;;21.69;47.58
74218;BME280;62579;47.288;18.646;2022-09-12T15:17:37;99742.44;;;21.57;48.47
74218;BME280;62579;47.288;18.646;2022-09-12T15:20:03;99744.75;;;21.78;48.93
74218;BME280;62579;47.288;18.646;2022-09-12T15:22:29;99752.62;;;21.81;47.89
74218;BME280;62579;47.288;18.646;2022-09-12T15:24:55;99751.09;;;21.88;48.18
74218;BME280;62579;47.288;18.646;2022-09-12T15:27:22;99750.56;;;21.72;48.12
74218;BME280;62579;47.288;18.646;2022-09-12T15:29:49;99753.69;;;21.86;48.00
74218;BME280;62579;47.288;18.646;2022-09-12T15:32:21;99749.63;;;21.87;48.03